Time;durP1;ratioP1;P1;durP2;ratioP2;P2;SDS_P1;SDS_P2;PMS_P1;PMS_P2;Temp;Humidity;BMP_temperature;BMP_pressure;BME280_temperature;BME280_humidity;BME280_pressure;Samples;Min_cycle;Max_cycle;Signal;HPM_P1;HPM_P2
2023/04/23 00:01:48;;;;;;;20.95;13.05;;;11.50;95.20;;;;;;10403885;28;20500;-84
2023/04/23 00:07:34;;;;;;;25.05;14.52;;;11.40;93.90;;;;;;10393943;28;20433;-84
2023/04/23 00:12:55;;;;;;;27.88;14.43;;;11.40;94.00;;;;;;10420333;28;20289;-83
2023/04/23 00:18:19;;;;;;;25.13;15.10;;;;;;;;;;10474074;28;20199;-84
2023/04/23 00:23:58;;;;;;;25.65;14.13;;;11.40;96.80;;;;;;10439373;28;20200;-84
2023/04/23 00:29:19;;;;;;;29.42;15.23;;;;;;;;;;10426932;28;20248;-83
2023/04/23 00:34:40;;;;;;;23.33;14.10;;;11.20;99.90;;;;;;10458529;28;20235;-84
2023/04/23 00:40:03;;;;;;;25.15;14.05;;;11.30;99.90;;;;;;10427596;28;20199;-84
2023/04/23 00:45:25;;;;;;;25.00;12.88;;;;;;;;;;10436894;28;20206;-83
2023/04/23 00:50:46;;;;;;;19.95;12.40;;;11.10;99.30;;;;;;10427215;28;20197;-84
2023/04/23 00:56:08;;;;;;;20.70;12.77;;;11.20;99.90;;;;;;10413149;28;20216;-84
2023/04/23 01:01:29;;;;;;;19.50;12.05;;;11.20;99.90;;;;;;10412989;28;20299;-84
2023/04/23 01:06:51;;;;;;;28.75;16.95;;;11.20;99.90;;;;;;10412557;28;20252;-84
2023/04/23 01:12:14;;;;;;;33.72;18.00;;;11.10;99.90;;;;;;10412790;28;20211;-84
2023/04/23 01:17:35;;;;;;;37.13;18.90;;;11.10;99.90;;;;;;10388329;28;20417;-84
2023/04/23 01:22:57;;;;;;;26.83;14.90;;;10.90;99.90;;;;;;10413064;28;20541;-83
2023/04/23 01:28:18;;;;;;;23.85;13.27;;;10.80;94.70;;;;;;10415325;28;20208;-83
2023/04/23 01:33:40;;;;;;;15.90;10.70;;;10.80;94.20;;;;;;10476368;28;20234;-82
2023/04/23 01:39:02;;;;;;;20.85;11.27;;;10.90;95.10;;;;;;10460142;28;20230;-83
2023/04/23 01:44:23;;;;;;;15.50;10.27;;;10.70;96.10;;;;;;10466745;28;20189;-83
2023/04/23 01:49:44;;;;;;;18.33;10.68;;;10.70;94.30;;;;;;10454892;28;20211;-84
2023/04/23 01:55:06;;;;;;;19.42;10.57;;;10.60;96.40;;;;;;10438720;28;20223;-83
2023/04/23 02:00:27;;;;;;;17.07;10.50;;;10.50;94.30;;;;;;10438477;28;20548;-84
2023/04/23 02:05:50;;;;;;;18.40;10.67;;;;;;;;;;10423012;28;20246;-84
2023/04/23 02:11:11;;;;;;;18.23;11.02;;;10.40;96.40;;;;;;10424083;28;20245;-83
2023/04/23 02:16:35;;;;;;;17.77;10.40;;;10.40;96.60;;;;;;10436942;28;20222;-83
2023/04/23 02:21:56;;;;;;;16.80;10.10;;;10.30;96.80;;;;;;10444766;28;20286;-83
2023/04/23 02:27:18;;;;;;;17.10;9.63;;;10.30;95.40;;;;;;10478882;28;20241;-84
2023/04/23 02:32:40;;;;;;;14.93;10.13;;;10.20;96.00;;;;;;10450660;28;20223;-83
2023/04/23 02:38:01;;;;;;;16.00;10.00;;;10.20;95.40;;;;;;10458756;28;20547;-84
2023/04/23 02:43:23;;;;;;;13.43;9.30;;;10.20;95.00;;;;;;10464372;28;20386;-84
2023/04/23 02:48:44;;;;;;;17.40;10.27;;;10.10;96.30;;;;;;10463143;28;20197;-83
2023/04/23 02:54:06;;;;;;;18.13;10.80;;;10.10;95.80;;;;;;10436897;28;20268;-83
2023/04/23 02:59:27;;;;;;;19.43;10.00;;;10.00;95.50;;;;;;10436491;28;20430;-84
2023/04/23 03:04:48;;;;;;;14.60;9.93;;;10.00;96.40;;;;;;10422227;28;20581;-84
2023/04/23 03:10:10;;;;;;;17.03;10.53;;;;;;;;;;10431689;28;20210;-83
2023/04/23 03:15:31;;;;;;;21.53;10.40;;;9.90;99.90;;;;;;10382847;28;20239;-83
2023/04/23 03:20:53;;;;;;;16.43;10.77;;;9.50;98.70;;;;;;10404024;28;20282;-83
2023/04/23 03:26:15;;;;;;;15.33;9.57;;;;;;;;;;10405897;28;20211;-84
2023/04/23 03:31:38;;;;;;;16.77;10.57;;;;;;;;;;10394225;28;20196;-83
2023/04/23 03:37:02;;;;;;;18.50;10.47;;;;;;;;;;10408132;28;20236;-83
2023/04/23 03:42:26;;;;;;;15.63;10.43;;;9.40;99.90;;;;;;10438018;28;20206;-84
2023/04/23 03:47:48;;;;;;;16.37;10.43;;;9.90;99.90;;;;;;10462459;28;20240;-83
2023/04/23 03:53:10;;;;;;;16.47;10.10;;;9.80;99.70;;;;;;10476220;28;20194;-83
2023/04/23 03:58:54;;;;;;;16.80;9.97;;;9.90;99.90;;;;;;10400752;28;20411;-83
2023/04/23 04:04:15;;;;;;;15.73;10.50;;;9.80;99.40;;;;;;10418070;28;20267;-84
2023/04/23 04:09:37;;;;;;;14.20;10.50;;;9.80;99.90;;;;;;10448847;28;20476;-83
2023/04/23 04:14:59;;;;;;;17.73;11.97;;;10.00;99.40;;;;;;10427383;28;20299;-83
2023/04/23 04:20:20;;;;;;;15.63;11.33;;;10.10;98.50;;;;;;10442298;28;20201;-82
2023/04/23 04:25:42;;;;;;;16.70;11.63;;;10.10;98.10;;;;;;10416309;28;20207;-84
2023/04/23 04:31:04;;;;;;;17.40;12.10;;;10.20;98.00;;;;;;10467733;28;20226;-84
2023/04/23 04:36:26;;;;;;;17.90;11.90;;;10.30;96.90;;;;;;10469390;28;20555;-83
2023/04/23 04:41:47;;;;;;;20.97;12.63;;;10.40;96.90;;;;;;10463844;28;20285;-83
2023/04/23 04:47:08;;;;;;;19.57;12.27;;;10.50;95.90;;;;;;10454832;28;20199;-83
2023/04/23 04:52:30;;;;;;;20.67;12.67;;;10.60;95.70;;;;;;10482198;28;20195;-83
2023/04/23 04:57:51;;;;;;;17.20;10.70;;;10.60;95.40;;;;;;10425765;28;20226;-84
2023/04/23 05:03:12;;;;;;;15.90;10.47;;;10.70;95.30;;;;;;10441022;28;20214;-83
2023/04/23 05:08:34;;;;;;;16.63;10.60;;;10.70;95.40;;;;;;10455197;28;20548;-83
2023/04/23 05:13:56;;;;;;;18.13;11.43;;;10.80;95.50;;;;;;10386151;28;20527;-83
2023/04/23 05:19:17;;;;;;;21.08;11.95;;;10.90;95.10;;;;;;10394963;28;20200;-84
2023/04/23 05:24:39;;;;;;;14.53;10.67;;;11.10;95.00;;;;;;10425252;28;20270;-83
2023/04/23 05:30:02;;;;;;;14.27;9.67;;;11.20;94.80;;;;;;10425508;28;20208;-83
2023/04/23 05:35:23;;;;;;;16.10;9.93;;;11.40;94.60;;;;;;10425448;28;20266;-83
2023/04/23 05:40:44;;;;;;;17.13;10.43;;;11.50;92.80;;;;;;10438221;28;20207;-82
2023/04/23 05:46:06;;;;;;;19.23;10.50;;;11.60;93.50;;;;;;10425299;28;20597;-83
2023/04/23 05:51:27;;;;;;;16.37;10.10;;;11.80;92.50;;;;;;10425086;28;20424;-84
2023/04/23 05:56:48;;;;;;;12.93;8.68;;;12.00;91.30;;;;;;10423810;28;20224;-83
2023/04/23 06:02:10;;;;;;;15.90;9.93;;;12.20;91.50;;;;;;10404597;28;20219;-84
2023/04/23 06:07:32;;;;;;;12.80;8.55;;;12.80;79.40;;;;;;10437492;28;20522;-84
2023/04/23 06:12:54;;;;;;;16.33;11.88;;;13.40;66.40;;;;;;10423282;28;20208;-83
2023/04/23 06:18:15;;;;;;;18.73;10.10;;;14.10;56.00;;;;;;10414423;28;20236;-83
2023/04/23 06:23:37;;;;;;;12.70;7.97;;;14.80;43.30;;;;;;10442428;28;20253;-84
2023/04/23 06:28:58;;;;;;;13.80;8.57;;;15.80;60.30;;;;;;10419045;28;20380;-84
2023/04/23 06:34:27;;;;;;;12.73;7.35;;;16.70;26.50;;;;;;10424031;28;20435;-84
2023/04/23 06:39:49;;;;;;;29.00;21.38;;;17.50;21.10;;;;;;10439728;28;20567;-84
2023/04/23 06:45:11;;;;;;;12.45;7.95;;;18.30;25.90;;;;;;10426004;28;20192;-85
2023/04/23 06:50:32;;;;;;;10.43;7.45;;;18.80;29.90;;;;;;10436687;28;20490;-84
2023/04/23 06:55:54;;;;;;;12.63;7.57;;;19.00;14.30;;;;;;10426222;28;20235;-83
2023/04/23 07:01:15;;;;;;;13.27;7.90;;;19.80;13.00;;;;;;10422347;28;20196;-84
2023/04/23 07:06:36;;;;;;;10.30;7.38;;;20.00;11.80;;;;;;10422035;28;20589;-83
2023/04/23 07:11:57;;;;;;;13.40;8.52;;;20.50;11.60;;;;;;10428635;28;20459;-83
2023/04/23 07:17:19;;;;;;;14.93;8.07;;;20.80;8.20;;;;;;10420777;28;20223;-85
2023/04/23 07:22:41;;;;;;;10.93;7.85;;;21.50;7.90;;;;;;10434473;28;20243;-84
2023/04/23 07:28:03;;;;;;;8.68;7.20;;;21.80;7.10;;;;;;10420436;28;20711;-84
2023/04/23 07:33:25;;;;;;;10.48;7.57;;;22.20;15.60;;;;;;10470826;28;20246;-84
2023/04/23 07:38:46;;;;;;;12.82;7.32;;;22.40;17.00;;;;;;10462146;28;20238;-84
2023/04/23 07:44:07;;;;;;;15.00;8.57;;;23.20;5.80;;;;;;10472149;28;20230;-85
2023/04/23 07:49:29;;;;;;;11.63;8.35;;;;;;;;;;10425728;28;20200;-85
2023/04/23 07:54:51;;;;;;;8.50;6.25;;;24.20;1.70;;;;;;10410330;28;20257;-85
2023/04/23 08:00:13;;;;;;;15.32;7.30;;;24.50;1.80;;;;;;10462487;28;20202;-84
2023/04/23 08:05:36;;;;;;;9.05;5.95;;;24.70;1.10;;;;;;10441710;28;20289;-85
2023/04/23 08:10:58;;;;;;;9.55;5.43;;;;;;;;;;10405356;28;20196;-85
2023/04/23 08:16:19;;;;;;;7.20;5.38;;;24.90;22.70;;;;;;10408719;28;20221;-84
2023/04/23 08:21:41;;;;;;;12.20;6.40;;;25.20;1.00;;;;;;10406131;28;20483;-85
2023/04/23 08:27:02;;;;;;;10.43;5.65;;;25.70;1.00;;;;;;10422181;28;20220;-85
2023/04/23 08:32:23;;;;;;;8.93;5.50;;;25.90;1.00;;;;;;10434217;28;20197;-85
2023/04/23 08:37:45;;;;;;;6.88;4.78;;;26.30;1.00;;;;;;10434829;28;20291;-86
2023/04/23 08:43:19;;;;;;;12.35;5.97;;;26.30;1.00;;;;;;10433992;28;20202;-85
2023/04/23 08:48:40;;;;;;;9.48;4.85;;;26.70;9.10;;;;;;10412482;28;20523;-85
2023/04/23 08:54:04;;;;;;;6.00;4.75;;;27.30;1.00;;;;;;10385928;28;20217;-85
2023/04/23 08:59:27;;;;;;;16.25;5.07;;;27.00;1.00;;;;;;10473602;28;20585;-84
2023/04/23 09:04:49;;;;;;;8.30;5.00;;;26.80;1.00;;;;;;10481925;28;20630;-84
2023/04/23 09:10:11;;;;;;;35.05;5.07;;;26.70;1.00;;;;;;10460932;28;20192;-85
2023/04/23 09:15:37;;;;;;;35.15;5.90;;;26.50;1.00;;;;;;10469098;28;20461;-85
2023/04/23 09:21:02;;;;;;;7.43;4.30;;;26.80;1.00;;;;;;10422854;28;20268;-86
2023/04/23 09:26:24;;;;;;;9.50;4.47;;;26.50;1.00;;;;;;10437187;28;20283;-85
2023/04/23 09:31:48;;;;;;;9.55;4.20;;;26.50;1.00;;;;;;10481047;28;20278;-85
2023/04/23 09:37:10;;;;;;;9.88;4.18;;;26.70;1.00;;;;;;10466954;28;20288;-85
2023/04/23 09:42:32;;;;;;;7.65;3.85;;;27.10;1.00;;;;;;10476130;28;20200;-85
2023/04/23 09:47:55;;;;;;;11.13;3.75;;;27.20;1.00;;;;;;10466100;28;20227;-84
2023/04/23 09:53:18;;;;;;;6.45;3.85;;;27.20;1.00;;;;;;10466181;28;20196;-85
2023/04/23 09:58:40;;;;;;;21.92;3.97;;;27.20;1.00;;;;;;10439224;28;20228;-85
2023/04/23 10:04:01;;;;;;;16.13;3.65;;;26.80;1.00;;;;;;10424282;28;20197;-85
2023/04/23 10:09:24;;;;;;;13.13;4.50;;;27.00;1.00;;;;;;10420144;28;20254;-85
2023/04/23 10:14:48;;;;;;;8.23;3.47;;;26.70;1.00;;;;;;10410869;28;20426;-85
2023/04/23 10:20:11;;;;;;;5.00;2.92;;;26.90;1.00;;;;;;10427283;28;20304;-85
2023/04/23 10:25:33;;;;;;;9.73;3.10;;;27.30;1.00;;;;;;10409916;28;20217;-85
2023/04/23 10:30:57;;;;;;;7.72;3.60;;;26.90;1.00;;;;;;10396359;28;20233;-86
2023/04/23 10:36:19;;;;;;;4.38;2.45;;;27.30;1.00;;;;;;10438485;28;20239;-85
2023/04/23 10:41:42;;;;;;;3.38;2.58;;;27.80;1.00;;;;;;10451295;28;20284;-85
2023/04/23 10:47:05;;;;;;;20.85;4.03;;;27.30;1.00;;;;;;10415195;28;20376;-85
2023/04/23 10:52:31;;;;;;;89.30;7.30;;;27.10;1.00;;;;;;10414976;28;20197;-85
2023/04/23 10:58:06;;;;;;;10.43;2.83;;;27.50;1.00;;;;;;10403743;28;20247;-84
2023/04/23 11:03:34;;;;;;;20.85;4.32;;;27.40;1.00;;;;;;10409503;28;20197;-85
2023/04/23 11:08:57;;;;;;;4.53;3.47;;;27.20;1.00;;;;;;10394436;28;20295;-85
2023/04/23 11:14:18;;;;;;;6.95;3.30;;;26.90;1.00;;;;;;10411644;28;20295;-85
2023/04/23 11:19:41;;;;;;;4.95;3.30;;;26.70;1.00;;;;;;10438629;28;20434;-85
2023/04/23 11:25:04;;;;;;;11.52;3.60;;;26.70;1.00;;;;;;10450115;28;20227;-86
2023/04/23 11:30:27;;;;;;;8.93;3.03;;;26.80;1.00;;;;;;10421169;28;20193;-85
2023/04/23 11:35:49;;;;;;;22.70;4.32;;;27.00;1.00;;;;;;10415679;28;20518;-85
2023/04/23 11:41:11;;;;;;;8.32;3.80;;;26.90;1.00;;;;;;10421529;28;20235;-84
2023/04/23 11:46:32;;;;;;;4.10;2.83;;;27.30;1.00;;;;;;10435069;28;20534;-86
2023/04/23 11:51:54;;;;;;;11.85;3.53;;;27.50;1.00;;;;;;10419466;28;20201;-85
2023/04/23 11:57:17;;;;;;;7.03;3.90;;;27.30;1.00;;;;;;10428053;28;20263;-85
2023/04/23 12:02:48;;;;;;;7.20;2.75;;;27.20;1.00;;;;;;10454483;28;20234;-85
2023/04/23 12:08:18;;;;;;;5.32;2.67;;;27.10;1.00;;;;;;10447417;28;20239;-85
2023/04/23 12:13:40;;;;;;;32.22;3.95;;;27.20;1.00;;;;;;10467881;28;20197;-85
2023/04/23 12:19:01;;;;;;;13.68;3.22;;;26.90;1.00;;;;;;10420108;28;20251;-86
2023/04/23 12:24:25;;;;;;;5.18;2.63;;;26.60;1.00;;;;;;10434413;28;20212;-86
2023/04/23 12:29:57;;;;;;;5.03;2.60;;;26.70;1.00;;;;;;10427664;28;20444;-86
2023/04/23 12:35:19;;;;;;;10.45;3.10;;;26.80;1.00;;;;;;10439410;28;20216;-86
2023/04/23 12:40:40;;;;;;;5.47;2.45;;;26.80;1.00;;;;;;10420293;28;20212;-86
2023/04/23 12:46:01;;;;;;;9.52;2.50;;;26.60;1.00;;;;;;10414081;28;20216;-86
2023/04/23 12:51:23;;;;;;;6.07;2.80;;;26.50;1.00;;;;;;10417493;28;20436;-86
2023/04/23 12:56:44;;;;;;;4.63;2.92;;;26.30;1.00;;;;;;10431534;28;20228;-86
2023/04/23 13:02:06;;;;;;;7.93;2.90;;;26.30;1.00;;;;;;10417189;28;20239;-85
2023/04/23 13:07:27;;;;;;;2.90;1.95;;;26.30;1.00;;;;;;10418898;28;20252;-86
2023/04/23 13:12:48;;;;;;;4.05;2.30;;;26.50;1.00;;;;;;10410477;28;20203;-86
2023/04/23 13:18:10;;;;;;;5.35;2.10;;;26.20;1.00;;;;;;10453571;28;20243;-86
2023/04/23 13:23:31;;;;;;;3.97;2.30;;;26.20;1.00;;;;;;10449718;28;20196;-85
2023/04/23 13:28:52;;;;;;;3.72;2.53;;;25.90;1.00;;;;;;10452698;28;20258;-85
2023/04/23 13:34:14;;;;;;;5.60;2.50;;;25.80;1.00;;;;;;10445094;28;20204;-85
2023/04/23 13:39:36;;;;;;;3.95;2.45;;;25.70;1.00;;;;;;10417089;28;20213;-85
2023/04/23 13:44:59;;;;;;;8.98;2.65;;;25.60;1.00;;;;;;10411979;28;20208;-84
2023/04/23 13:50:20;;;;;;;3.70;2.58;;;25.30;1.00;;;;;;10412193;28;20422;-86
2023/04/23 13:55:42;;;;;;;4.38;2.78;;;25.20;1.00;;;;;;10462872;28;20522;-85
2023/04/23 14:01:03;;;;;;;9.73;3.05;;;25.00;1.00;;;;;;10417135;28;20197;-86
2023/04/23 14:06:25;;;;;;;6.65;3.28;;;24.70;1.00;;;;;;10434649;28;20228;-86
2023/04/23 14:11:47;;;;;;;5.05;3.05;;;24.60;1.00;;;;;;10437327;28;20208;-85
2023/04/23 14:17:08;;;;;;;6.97;2.75;;;24.40;1.00;;;;;;10437557;28;20224;-85
2023/04/23 14:22:30;;;;;;;10.25;3.08;;;24.40;1.00;;;;;;10435511;28;20291;-85
2023/04/23 14:27:54;;;;;;;5.03;2.60;;;24.10;1.00;;;;;;10429756;28;20212;-85
2023/04/23 14:33:16;;;;;;;4.32;2.70;;;24.00;1.00;;;;;;10442786;28;20283;-86
2023/04/23 14:38:37;;;;;;;4.30;2.92;;;23.80;1.00;;;;;;10428596;28;20229;-85
2023/04/23 14:44:02;;;;;;;5.35;2.58;;;23.40;1.00;;;;;;10428943;28;20201;-85
2023/04/23 14:49:23;;;;;;;3.40;2.65;;;23.30;1.00;;;;;;10428911;28;20598;-84
2023/04/23 14:54:45;;;;;;;4.50;3.08;;;23.10;1.00;;;;;;10415575;28;20201;-85
2023/04/23 15:00:11;;;;;;;7.82;3.75;;;22.70;1.00;;;;;;10435374;28;20238;-85
2023/04/23 15:05:33;;;;;;;8.35;3.67;;;22.60;1.30;;;;;;10409187;28;20241;-85
2023/04/23 15:10:54;;;;;;;8.65;5.35;;;22.40;2.10;;;;;;10427759;28;20195;-85
2023/04/23 15:16:25;;;;;;;12.32;5.45;;;22.20;2.50;;;;;;10464735;28;20228;-84
2023/04/23 15:21:55;;;;;;;9.38;3.80;;;22.20;3.00;;;;;;10393972;28;20217;-84
2023/04/23 15:27:17;;;;;;;10.60;5.57;;;22.10;3.00;;;;;;10392157;28;20223;-85
2023/04/23 15:32:38;;;;;;;7.75;3.25;;;22.10;3.30;;;;;;10378959;28;20518;-84
2023/04/23 15:38:00;;;;;;;7.35;4.32;;;22.00;3.30;;;;;;10409048;28;20225;-84
2023/04/23 15:43:22;;;;;;;7.70;3.35;;;21.90;3.80;;;;;;10451985;28;20192;-84
2023/04/23 15:48:43;;;;;;;15.82;3.97;;;21.80;3.90;;;;;;10416683;28;20200;-84
2023/04/23 15:54:06;;;;;;;11.23;3.50;;;21.70;4.10;;;;;;10413972;28;20212;-85
2023/04/23 15:59:28;;;;;;;56.35;6.82;;;21.40;4.30;;;;;;10391314;28;20217;-85
2023/04/23 16:04:50;;;;;;;5.50;3.40;;;21.30;5.30;;;;;;10388091;28;20513;-84
2023/04/23 16:10:11;;;;;;;20.95;4.72;;;21.10;6.70;;;;;;10369881;28;20225;-85
2023/04/23 16:15:33;;;;;;;9.35;4.70;;;20.80;10.60;;;;;;10381068;28;20312;-85
2023/04/23 16:20:54;;;;;;;8.68;5.05;;;20.50;15.20;;;;;;10413833;28;20266;-84
2023/04/23 16:26:16;;;;;;;8.02;6.50;;;19.70;22.40;;;;;;10428337;28;20392;-84
2023/04/23 16:31:37;;;;;;;11.35;6.53;;;19.30;54.70;;;;;;10464992;28;20215;-85
2023/04/23 16:36:59;;;;;;;9.07;6.10;;;18.70;92.60;;;;;;10443350;28;20223;-84
2023/04/23 16:42:22;;;;;;;7.72;6.82;;;18.40;99.60;;;;;;10455276;28;20226;-84
2023/04/23 16:47:44;;;;;;;13.23;7.65;;;18.20;99.90;;;;;;10463146;28;20204;-84
2023/04/23 16:53:05;;;;;;;9.95;6.60;;;18.10;99.90;;;;;;10440271;28;20208;-85
2023/04/23 16:58:27;;;;;;;12.05;7.70;;;18.00;99.90;;;;;;10408821;28;20248;-85
2023/04/23 17:03:48;;;;;;;10.75;7.40;;;18.00;99.90;;;;;;10445972;28;20211;-85
2023/04/23 17:09:10;;;;;;;8.15;6.55;;;17.90;99.90;;;;;;10468086;28;20227;-85
2023/04/23 17:14:31;;;;;;;11.55;7.00;;;17.70;99.90;;;;;;10442089;28;20208;-84
2023/04/23 17:19:52;;;;;;;9.32;6.80;;;17.70;99.90;;;;;;10405495;28;20296;-84
2023/04/23 17:25:14;;;;;;;9.35;6.95;;;17.60;99.90;;;;;;10401473;28;20216;-84
2023/04/23 17:30:35;;;;;;;8.45;6.90;;;17.70;99.90;;;;;;10402053;28;20263;-85
2023/04/23 17:35:56;;;;;;;7.00;6.20;;;17.70;99.90;;;;;;10464546;28;20334;-85
2023/04/23 17:41:18;;;;;;;8.35;6.05;;;17.60;99.90;;;;;;10439502;28;20275;-83
2023/04/23 17:46:39;;;;;;;7.75;6.28;;;17.70;99.90;;;;;;10434236;28;20211;-86
2023/04/23 17:52:02;;;;;;;10.82;7.85;;;17.70;99.90;;;;;;10452683;28;20222;-85
2023/04/23 17:57:23;;;;;;;11.68;7.32;;;17.60;99.90;;;;;;10465871;28;20299;-85
2023/04/23 18:02:45;;;;;;;12.00;8.32;;;17.50;99.90;;;;;;10401215;28;20224;-85
2023/04/23 18:08:07;;;;;;;15.95;7.47;;;17.50;99.90;;;;;;10383101;28;20236;-84
2023/04/23 18:13:28;;;;;;;11.90;7.63;;;17.60;99.90;;;;;;10413740;28;20254;-85
2023/04/23 18:18:50;;;;;;;12.90;8.82;;;17.50;99.90;;;;;;10432439;28;20228;-85
2023/04/23 18:24:12;;;;;;;13.13;9.80;;;17.30;99.90;;;;;;10437687;28;20371;-85
2023/04/23 18:29:33;;;;;;;13.93;9.95;;;17.30;99.90;;;;;;10423758;28;20216;-85
2023/04/23 18:34:55;;;;;;;15.50;10.85;;;17.30;99.90;;;;;;10422746;28;20208;-85
2023/04/23 18:40:17;;;;;;;13.98;9.77;;;17.20;99.90;;;;;;10423221;28;20521;-85
2023/04/23 18:45:39;;;;;;;12.63;8.43;;;17.20;99.90;;;;;;10421793;28;20220;-85
2023/04/23 18:51:13;;;;;;;15.30;9.88;;;17.10;99.90;;;;;;10450451;28;20199;-85
2023/04/23 18:56:35;;;;;;;12.10;7.70;;;17.00;99.90;;;;;;10445627;28;20232;-86
2023/04/23 19:01:56;;;;;;;15.55;10.30;;;16.90;99.90;;;;;;10431164;28;20192;-85
2023/04/23 19:07:18;;;;;;;19.38;10.70;;;16.70;99.90;;;;;;10428552;28;20231;-84
2023/04/23 19:12:39;;;;;;;11.30;9.50;;;16.60;99.90;;;;;;10447060;28;20519;-85
2023/04/23 19:18:01;;;;;;;14.15;9.05;;;16.50;99.90;;;;;;10434973;28;20231;-85
2023/04/23 19:23:23;;;;;;;15.13;9.43;;;16.40;99.90;;;;;;10452438;28;20382;-85
2023/04/23 19:28:45;;;;;;;12.13;9.43;;;16.30;99.90;;;;;;10462276;28;20278;-86
2023/04/23 19:34:06;;;;;;;11.25;8.75;;;16.30;99.90;;;;;;10462809;28;20195;-85
2023/04/23 19:39:27;;;;;;;11.88;9.93;;;16.20;99.90;;;;;;10426139;28;20462;-85
2023/04/23 19:44:49;;;;;;;13.23;10.55;;;16.10;99.90;;;;;;10435201;28;20241;-85
2023/04/23 19:50:12;;;;;;;12.45;9.30;;;16.00;99.90;;;;;;10420894;28;20233;-85
2023/04/23 19:55:33;;;;;;;10.55;8.65;;;16.00;99.90;;;;;;10421119;28;20247;-85
2023/04/23 20:00:55;;;;;;;13.45;8.00;;;16.00;99.90;;;;;;10435562;28;20298;-85
2023/04/23 20:06:16;;;;;;;10.95;9.73;;;15.90;99.90;;;;;;10424520;28;20253;-85
2023/04/23 20:11:38;;;;;;;12.73;10.32;;;15.90;99.90;;;;;;10442407;28;20251;-85
2023/04/23 20:16:59;;;;;;;12.55;9.57;;;15.80;99.90;;;;;;10434507;28;20249;-85
2023/04/23 20:22:21;;;;;;;11.55;10.35;;;15.80;99.90;;;;;;10434618;28;20536;-86
2023/04/23 20:27:43;;;;;;;7.95;7.15;;;15.70;99.90;;;;;;10432774;28;20265;-86
2023/04/23 20:33:04;;;;;;;8.10;7.00;;;15.60;99.90;;;;;;10441951;28;20255;-85
2023/04/23 20:38:29;;;;;;;7.05;6.32;;;15.40;99.90;;;;;;10425815;28;20581;-85
2023/04/23 20:43:51;;;;;;;6.28;5.68;;;15.30;99.90;;;;;;10440587;28;20236;-85
2023/04/23 20:49:12;;;;;;;7.05;5.30;;;15.00;99.90;;;;;;10428116;28;20489;-85
2023/04/23 20:54:35;;;;;;;5.57;5.05;;;;;;;;;;10441246;28;20226;-85
2023/04/23 20:59:56;;;;;;;5.20;4.65;;;14.80;99.90;;;;;;10448943;28;20226;-85
2023/04/23 21:05:17;;;;;;;5.35;4.85;;;14.80;99.90;;;;;;10469079;28;20191;-85
2023/04/23 21:10:40;;;;;;;5.45;4.65;;;14.80;99.90;;;;;;10468599;28;20198;-84
2023/04/23 21:16:02;;;;;;;4.97;4.45;;;14.80;99.90;;;;;;10445016;28;20222;-85
2023/04/23 21:21:26;;;;;;;8.32;5.72;;;14.80;99.90;;;;;;10440168;28;20538;-85
2023/04/23 21:26:49;;;;;;;8.13;5.32;;;14.70;99.90;;;;;;10440584;28;20245;-85
2023/04/23 21:32:11;;;;;;;7.15;5.70;;;14.60;99.90;;;;;;10410646;28;20211;-85
2023/04/23 21:37:32;;;;;;;6.20;5.60;;;14.50;99.90;;;;;;10413788;28;20227;-85
2023/04/23 21:42:53;;;;;;;7.25;5.93;;;14.40;99.90;;;;;;10424657;28;21440;-85
2023/04/23 21:48:14;;;;;;;5.50;4.80;;;14.40;99.90;;;;;;10401189;28;20245;-85
2023/04/23 21:53:36;;;;;;;4.50;4.05;;;14.50;99.90;;;;;;10369881;28;20510;-85
2023/04/23 21:58:57;;;;;;;5.13;4.57;;;14.50;99.90;;;;;;10419001;28;20223;-86
2023/04/23 22:04:20;;;;;;;5.10;4.60;;;14.40;99.90;;;;;;10415069;28;20355;-84
2023/04/23 22:09:42;;;;;;;4.78;4.03;;;14.40;99.90;;;;;;10438871;28;20469;-85
2023/04/23 22:15:14;;;;;;;7.20;4.65;;;14.40;99.90;;;;;;10436332;28;20203;-86
2023/04/23 22:20:37;;;;;;;8.88;5.75;;;14.40;99.90;;;;;;10451654;28;20220;-84
2023/04/23 22:25:59;;;;;;;11.10;6.88;;;14.40;99.90;;;;;;10438384;28;20202;-85
2023/04/23 22:31:20;;;;;;;10.60;6.53;;;14.40;99.90;;;;;;10409641;28;20203;-85
2023/04/23 22:36:42;;;;;;;11.18;6.85;;;14.50;99.90;;;;;;10395841;28;20241;-85
2023/04/23 22:42:03;;;;;;;9.55;7.25;;;14.40;99.90;;;;;;10396808;28;20208;-85
2023/04/23 22:47:26;;;;;;;8.80;6.78;;;14.50;99.90;;;;;;10453128;28;20209;-85
2023/04/23 22:52:47;;;;;;;9.80;6.93;;;14.50;99.90;;;;;;10423887;28;20202;-85
2023/04/23 22:58:08;;;;;;;13.20;8.50;;;14.40;99.90;;;;;;10466359;28;20229;-85
2023/04/23 23:03:30;;;;;;;8.75;6.95;;;14.30;99.90;;;;;;10421469;28;20196;-86
2023/04/23 23:08:52;;;;;;;6.47;5.78;;;14.30;99.90;;;;;;10421261;28;20245;-84
2023/04/23 23:14:13;;;;;;;6.22;5.63;;;14.30;99.90;;;;;;10435608;28;20199;-85
2023/04/23 23:19:35;;;;;;;6.63;5.63;;;14.20;99.90;;;;;;10413174;28;20245;-85
2023/04/23 23:24:56;;;;;;;8.63;6.53;;;14.30;99.90;;;;;;10406679;28;20209;-85
2023/04/23 23:30:17;;;;;;;6.65;5.95;;;14.20;99.90;;;;;;10421767;28;20232;-85
2023/04/23 23:35:40;;;;;;;7.45;6.68;;;14.20;99.90;;;;;;10434932;28;20210;-84
2023/04/23 23:41:02;;;;;;;5.28;4.78;;;14.10;99.90;;;;;;10421852;28;20211;-85
2023/04/23 23:46:24;;;;;;;6.20;5.60;;;14.10;99.90;;;;;;10407853;28;20248;-85
2023/04/23 23:51:46;;;;;;;6.60;5.40;;;14.20;99.90;;;;;;10421059;28;20206;-85
2023/04/23 23:57:07;;;;;;;7.95;5.93;;;14.10;99.90;;;;;;10444830;28;20229;-85
